Aérodrome :
LOGIN :

S'inscrire | Disclaimer

   EN    FR    IT 

 










Légende :    VFR   VFR Marginal   IFR   IFR Intensif   IFR Très Intensif
Visi : 
Plafond : 
>= 8 km
>= 3000ft
5 à 8 km
1000 à 3000 ft
1500m à 5 km
500 à 1000 ft
800 à 1500m
200 à 500 ft
< 800m
< 200 ft
Symboles :   Orages  Brouillard  Fortes neiges  Fortes précipitations  Vent > 20 kt
SIGMETs :   Divers  Orages  Givrage  Turbulence  Onde Orograph.  Cendres Volcan.







- Altitude de l'aérodrome : 242 ft
- Code IATA : DUB


EIDW - Dublin

DERNIER METAR :
  • 231930Z 21015KT 9999 FEW018 SCT240 10/05 Q1004 NOSIG

METARs EXPIRÉS :
  • 231900Z 23012KT 9999 FEW016 SCT240 09/04 Q1004 NOSIG
  • 231830Z 23015KT 9999 FEW016 SCT240 09/03 Q1004 NOSIG
  • 231800Z 24015KT 9999 FEW016 SCT200 10/04 Q1004 NOSIG
  • 231730Z 24014KT 9999 FEW015 SCT040 BKN200 10/04 Q1004 NOSIG
  • 231700Z 25019KT 9999 FEW015 SCT040 BKN200 10/04 Q1005 NOSIG

TAF TAF EIDW
Valide du 23 à 18h jusqu'au 24 à 18h UTC


231700Z 2318/2418 25018G30KT 9999 SCT018 SCT030
BECMG 2318/2320 20015KT
BECMG 2321/2323 19020G33KT
TEMPO 2400/2405 7000 -RA BKN013
BECMG 2323/2401 20027G43KT
TEMPO 2401/2403 21032G50KT
BECMG 2402/2404 23028G45KT
PROB40
TEMPO 2403/2405 5000 RA
BECMG 2404/2406 23025G40KT
BECMG 2406/2408 23019G32KT
TEMPO 2408/2413 23023G38KT
TEMPO 2409/2418 -SHRA SCT018CB
Pas de NOTAMs connus pour ce terrain.
2 SIGMETs publiés pour la FIR Shannon (EISN) :
 
Turbulence forte
EISN SIGMET 05 VALID 232015/240015 EINN
EISN SHANNON FIR SEV TURB FCST W OF LINE N5100 W01000 - N5420 W01200 SFC/FL060 MOV ENE AT 45KT INTSF=
Annulation du SIGMET 02
EISN SIGMET 04 231542/231830 EINN
EISN SHANNON FIR/UIR CNL SIGMET 02 231530/231830=



MET'MAP, la Météo Aéronautique d'un coup d'oeil ! - Copyright ORBIFLY Décembre 2007 - Disclaimer

ORBIFLY MET'MAP TEAM :

Programmation & Développement : Alexandra Zaïnal
Conception & Développement : Baudouin d'Aumeries
Co-Programmation & Développement : Marc-Olivier Méhu
Soutien technique & logistique : Manuel Goepfert

Contact : metmap@orbifly.com




SOURCES & CREDITS :

   NOAA